Time;durP1;ratioP1;P1;durP2;ratioP2;P2;SDS_P1;SDS_P2;PMS_P1;PMS_P2;Temp;Humidity;BMP_temperature;BMP_pressure;BME280_temperature;BME280_humidity;BME280_pressure;Samples;Min_cycle;Max_cycle;Signal;HPM_P1;HPM_P2
2023/04/05 00:01:27;;;;;;;8.90;4.43;;;3.90;80.80;;;;;;5055475;28;20036;-72
2023/04/05 00:03:57;;;;;;;8.05;4.18;;;3.90;81.00;;;;;;5055524;28;20037;-71
2023/04/05 00:06:30;;;;;;;7.88;4.15;;;3.80;80.90;;;;;;5055560;28;20165;-72
2023/04/05 00:08:58;;;;;;;9.25;4.38;;;3.80;81.30;;;;;;5055648;28;20050;-72
2023/04/05 00:11:25;;;;;;;8.30;4.35;;;3.70;81.40;;;;;;5055505;28;20054;-71
2023/04/05 00:13:51;;;;;;;9.63;4.55;;;3.70;81.80;;;;;;5055324;28;20102;-71
2023/04/05 00:16:17;;;;;;;8.25;4.03;;;3.70;81.90;;;;;;5054987;28;20041;-71
2023/04/05 00:18:48;;;;;;;6.38;4.25;;;3.70;81.90;;;;;;5055502;28;20562;-71
2023/04/05 00:21:15;;;;;;;9.23;4.53;;;3.70;82.20;;;;;;5055158;28;20082;-71
2023/04/05 00:23:43;;;;;;;9.65;4.13;;;3.60;82.30;;;;;;5055135;28;20032;-71
2023/04/05 00:26:10;;;;;;;7.95;4.07;;;3.60;82.50;;;;;;5055606;28;20123;-71
2023/04/05 00:28:35;;;;;;;7.80;4.85;;;3.60;82.50;;;;;;5055024;28;20428;-72
2023/04/05 00:31:01;;;;;;;8.68;4.68;;;3.50;82.80;;;;;;5055355;28;20036;-72
2023/04/05 00:33:27;;;;;;;8.77;4.18;;;3.50;83.10;;;;;;5055028;28;20543;-71
2023/04/05 00:35:52;;;;;;;9.02;4.20;;;3.50;83.20;;;;;;5054857;28;20032;-71
2023/04/05 00:38:18;;;;;;;7.82;3.90;;;3.50;83.50;;;;;;5055233;28;20135;-71
2023/04/05 00:40:44;;;;;;;7.15;4.07;;;3.40;83.30;;;;;;5055253;28;20044;-72
2023/04/05 00:43:09;;;;;;;7.75;4.63;;;3.40;83.50;;;;;;5038686;28;20044;-71
2023/04/05 00:45:35;;;;;;;8.95;4.25;;;3.40;83.80;;;;;;5054884;28;20405;-71
2023/04/05 00:48:01;;;;;;;8.15;4.70;;;3.30;84.10;;;;;;5054749;28;20040;-71
2023/04/05 00:50:29;;;;;;;6.63;3.92;;;3.30;84.00;;;;;;5055184;28;20043;-71
2023/04/05 00:52:57;;;;;;;10.93;4.63;;;3.30;84.30;;;;;;5054828;28;20029;-72
2023/04/05 00:55:23;;;;;;;9.32;5.20;;;3.30;84.40;;;;;;5038344;28;20072;-71
2023/04/05 00:57:49;;;;;;;7.78;4.47;;;3.20;84.60;;;;;;5054785;28;20045;-71
2023/04/05 01:00:15;;;;;;;8.15;4.72;;;3.20;84.70;;;;;;5038503;28;20038;-72
2023/04/05 01:02:46;;;;;;;9.35;4.72;;;3.20;84.80;;;;;;5054751;28;20066;-71
2023/04/05 01:05:23;;;;;;;7.95;4.60;;;3.10;84.90;;;;;;5054847;28;20048;-72
2023/04/05 01:08:10;;;;;;;7.80;4.88;;;3.10;85.20;;;;;;5054708;28;20040;-71
2023/04/05 01:10:41;;;;;;;9.63;5.00;;;3.10;85.20;;;;;;5038348;28;20040;-71
2023/04/05 01:13:07;;;;;;;9.23;5.05;;;3.00;85.40;;;;;;5054782;28;20036;-71
2023/04/05 01:15:34;;;;;;;9.15;5.10;;;2.90;85.50;;;;;;5057176;28;20556;-71
2023/04/05 01:18:02;;;;;;;11.25;4.68;;;2.90;85.60;;;;;;5058330;28;20127;-71
2023/04/05 01:20:33;;;;;;;11.63;5.50;;;2.90;85.80;;;;;;5058510;28;20511;-72
2023/04/05 01:23:23;;;;;;;9.60;5.20;;;2.90;86.00;;;;;;5058546;28;20400;-72
2023/04/05 01:26:11;;;;;;;11.25;4.63;;;2.90;86.60;;;;;;5058684;28;20049;-71
2023/04/05 01:28:56;;;;;;;10.40;4.57;;;2.90;86.40;;;;;;5058570;28;20513;-72
2023/04/05 01:31:30;;;;;;;8.73;4.72;;;2.80;87.10;;;;;;5041736;28;20500;-72
2023/04/05 01:34:15;;;;;;;9.00;4.30;;;2.80;86.70;;;;;;5058229;28;20401;-71
2023/04/05 01:37:06;;;;;;;10.95;5.10;;;2.70;87.20;;;;;;5041537;28;20036;-71
2023/04/05 01:39:34;;;;;;;10.10;4.93;;;2.70;87.40;;;;;;5048580;28;20048;-72
2023/04/05 01:42:01;;;;;;;8.93;4.20;;;2.60;87.50;;;;;;5041813;28;20485;-72
2023/04/05 01:44:27;;;;;;;8.75;4.97;;;2.60;88.10;;;;;;5058036;28;20039;-71
2023/04/05 01:46:53;;;;;;;8.57;4.85;;;2.50;88.40;;;;;;5058007;28;20049;-71
2023/04/05 01:49:19;;;;;;;7.90;4.20;;;2.50;88.50;;;;;;5041392;28;20047;-71
2023/04/05 01:51:45;;;;;;;8.93;4.95;;;2.50;89.00;;;;;;5041277;28;20036;-71
2023/04/05 01:54:10;;;;;;;8.65;5.00;;;2.40;88.80;;;;;;5057878;28;20043;-72
2023/04/05 01:56:36;;;;;;;9.73;4.80;;;2.40;88.90;;;;;;5057713;28;20041;-72
2023/04/05 01:59:02;;;;;;;10.52;5.35;;;2.30;88.80;;;;;;5057818;28;20028;-72
2023/04/05 02:01:27;;;;;;;7.50;4.55;;;2.30;88.90;;;;;;5058029;28;20086;-72
2023/04/05 02:03:53;;;;;;;8.43;4.90;;;2.30;89.00;;;;;;5057930;28;20472;-72
2023/04/05 02:06:18;;;;;;;7.20;4.38;;;2.30;89.00;;;;;;5057570;28;20044;-71
2023/04/05 02:08:44;;;;;;;7.90;4.53;;;2.30;89.30;;;;;;5057590;28;20036;-71
2023/04/05 02:11:10;;;;;;;9.40;4.85;;;2.30;89.40;;;;;;5057554;28;20039;-71
2023/04/05 02:13:35;;;;;;;7.65;4.45;;;2.20;89.70;;;;;;5057817;28;20037;-72
2023/04/05 02:16:01;;;;;;;9.05;4.88;;;2.20;89.60;;;;;;5057075;28;20048;-71
2023/04/05 02:18:30;;;;;;;7.57;4.55;;;2.20;89.70;;;;;;5057486;28;20036;-72
2023/04/05 02:21:03;;;;;;;9.27;4.45;;;2.20;89.80;;;;;;5057343;28;20079;-72
2023/04/05 02:23:30;;;;;;;8.00;4.13;;;2.20;90.00;;;;;;5057573;28;20048;-71
2023/04/05 02:25:56;;;;;;;8.30;4.30;;;2.10;90.10;;;;;;5056255;28;20110;-71
2023/04/05 02:28:22;;;;;;;8.52;4.50;;;2.10;90.10;;;;;;5040753;28;20085;-72
2023/04/05 02:30:48;;;;;;;12.88;4.72;;;2.10;90.00;;;;;;5057216;28;20116;-72
2023/04/05 02:33:13;;;;;;;7.30;4.78;;;2.00;90.00;;;;;;5057083;28;20041;-72
2023/04/05 02:35:39;;;;;;;7.57;5.13;;;2.00;90.20;;;;;;5057200;28;20072;-72
2023/04/05 02:38:04;;;;;;;9.00;5.15;;;2.00;90.30;;;;;;5056907;28;20040;-72
2023/04/05 02:40:30;;;;;;;11.07;4.80;;;2.00;90.30;;;;;;5057227;28;20036;-71
2023/04/05 02:42:56;;;;;;;10.25;4.85;;;2.00;90.30;;;;;;5057134;28;20041;-72
2023/04/05 02:45:22;;;;;;;8.75;4.50;;;2.00;90.40;;;;;;5056832;28;20574;-71
2023/04/05 02:47:48;;;;;;;9.77;4.97;;;2.00;90.50;;;;;;5057078;28;20070;-71
2023/04/05 02:50:13;;;;;;;11.55;4.88;;;1.90;90.50;;;;;;5056802;28;20496;-72
2023/04/05 02:52:39;;;;;;;9.05;4.75;;;1.90;90.40;;;;;;5056741;28;20051;-72
2023/04/05 02:55:05;;;;;;;10.90;5.35;;;1.90;90.50;;;;;;5056640;28;20044;-71
2023/04/05 02:57:31;;;;;;;9.15;4.82;;;2.00;90.50;;;;;;5056577;28;20115;-72
2023/04/05 02:59:57;;;;;;;11.45;5.03;;;2.00;90.50;;;;;;5056599;28;20119;-72
2023/04/05 03:02:22;;;;;;;9.15;5.18;;;1.90;90.50;;;;;;5056826;28;20223;-71
2023/04/05 03:04:52;;;;;;;11.43;4.82;;;1.90;90.40;;;;;;5039959;28;20551;-71
2023/04/05 03:07:17;;;;;;;9.65;5.60;;;1.80;90.30;;;;;;5056636;28;20045;-71
2023/04/05 03:09:46;;;;;;;10.98;5.38;;;1.80;90.40;;;;;;5056402;28;20052;-71
2023/04/05 03:12:12;;;;;;;8.25;5.32;;;1.80;90.50;;;;;;5056549;28;20105;-71
2023/04/05 03:14:39;;;;;;;10.32;5.57;;;1.80;90.60;;;;;;5056332;28;20040;-72
2023/04/05 03:17:05;;;;;;;9.55;6.13;;;1.70;90.60;;;;;;5055976;28;20531;-71
2023/04/05 03:19:30;;;;;;;9.70;5.30;;;1.70;91.00;;;;;;5056510;28;20065;-72
2023/04/05 03:21:57;;;;;;;10.30;6.00;;;1.70;91.10;;;;;;5056388;28;20489;-72
2023/04/05 03:24:22;;;;;;;9.02;5.90;;;1.70;91.00;;;;;;5056140;28;20044;-71
2023/04/05 03:26:48;;;;;;;9.40;5.70;;;1.70;91.10;;;;;;5055990;28;20131;-71
2023/04/05 03:29:17;;;;;;;11.73;6.18;;;1.70;91.20;;;;;;5056290;28;20135;-71
2023/04/05 03:31:44;;;;;;;11.73;6.55;;;1.70;91.20;;;;;;5055977;28;20569;-71
2023/04/05 03:34:10;;;;;;;11.10;6.93;;;1.60;91.10;;;;;;5039334;28;20496;-72
2023/04/05 03:36:41;;;;;;;11.52;5.85;;;1.70;91.30;;;;;;5056102;28;20051;-71
2023/04/05 03:39:11;;;;;;;13.43;6.72;;;1.70;91.30;;;;;;5055837;28;20110;-71
2023/04/05 03:41:38;;;;;;;9.25;6.00;;;1.70;91.50;;;;;;5055858;28;20037;-71
2023/04/05 03:44:05;;;;;;;13.43;6.25;;;1.70;91.50;;;;;;5055761;28;20078;-72
2023/04/05 03:46:31;;;;;;;12.27;6.95;;;1.70;91.50;;;;;;5055669;28;20072;-71
2023/04/05 03:48:58;;;;;;;14.20;7.55;;;1.70;91.70;;;;;;5055719;28;20040;-72
2023/04/05 03:51:23;;;;;;;11.57;7.10;;;1.70;91.80;;;;;;5055907;28;20501;-72
2023/04/05 03:53:50;;;;;;;12.90;7.30;;;1.60;91.90;;;;;;5055926;28;20144;-71
2023/04/05 03:56:16;;;;;;;15.52;7.85;;;1.60;92.10;;;;;;5055609;28;20048;-71
2023/04/05 03:58:42;;;;;;;12.63;8.13;;;1.70;92.10;;;;;;5055476;28;20044;-72
2023/04/05 04:01:08;;;;;;;14.00;8.60;;;1.60;92.20;;;;;;5055794;28;20036;-72
2023/04/05 04:03:36;;;;;;;14.98;8.23;;;1.60;92.40;;;;;;5055501;28;20408;-71
2023/04/05 04:06:05;;;;;;;12.50;7.35;;;1.60;92.30;;;;;;5055396;28;20059;-71
2023/04/05 04:08:31;;;;;;;13.93;7.47;;;1.60;92.20;;;;;;5055437;28;20057;-71
2023/04/05 04:10:57;;;;;;;16.00;7.50;;;1.60;92.30;;;;;;5055310;28;20048;-72
2023/04/05 04:13:22;;;;;;;14.98;7.30;;;1.60;92.40;;;;;;5055352;28;20040;-72
2023/04/05 04:15:48;;;;;;;11.80;7.20;;;1.60;92.10;;;;;;5055241;28;20052;-71
2023/04/05 04:18:14;;;;;;;12.75;7.95;;;1.60;91.90;;;;;;5055250;28;20044;-71
2023/04/05 04:20:40;;;;;;;12.13;7.05;;;1.60;91.80;;;;;;5055142;28;20055;-72
2023/04/05 04:23:08;;;;;;;11.35;7.20;;;1.50;91.70;;;;;;5055225;28;20048;-72
2023/04/05 04:25:35;;;;;;;15.43;7.28;;;1.50;91.70;;;;;;5072993;28;20514;-72
2023/04/05 04:28:02;;;;;;;13.68;8.00;;;1.50;92.00;;;;;;5054979;28;20455;-72
2023/04/05 04:30:28;;;;;;;14.55;7.78;;;1.50;92.10;;;;;;5055027;28;20036;-73
2023/04/05 04:32:54;;;;;;;14.18;7.97;;;1.50;92.00;;;;;;5055064;28;20093;-72
2023/04/05 04:35:23;;;;;;;17.48;8.70;;;1.40;92.10;;;;;;5055220;28;20047;-72
2023/04/05 04:37:59;;;;;;;12.23;7.55;;;1.40;92.10;;;;;;5054936;28;20090;-72
2023/04/05 04:40:28;;;;;;;13.77;7.60;;;1.40;92.40;;;;;;5038351;28;20032;-72
2023/04/05 04:42:57;;;;;;;13.68;7.70;;;1.30;92.40;;;;;;5054873;28;20493;-72
2023/04/05 04:45:23;;;;;;;13.32;8.40;;;1.30;92.60;;;;;;5055123;28;20106;-72
2023/04/05 04:47:52;;;;;;;12.25;6.95;;;1.40;92.70;;;;;;5054872;28;20447;-72
2023/04/05 04:50:19;;;;;;;13.40;7.43;;;1.40;92.50;;;;;;5057032;28;20040;-72
2023/04/05 04:52:46;;;;;;;14.57;8.10;;;1.30;92.70;;;;;;5059003;28;20496;-73
2023/04/05 04:55:15;;;;;;;14.07;7.72;;;1.30;92.90;;;;;;5059120;28;20048;-72
2023/04/05 04:57:41;;;;;;;16.92;8.02;;;1.30;92.70;;;;;;5058886;28;20041;-72
2023/04/05 05:00:12;;;;;;;13.90;8.70;;;1.30;92.90;;;;;;5058792;28;20040;-73
2023/04/05 05:02:37;;;;;;;10.52;7.32;;;1.30;93.20;;;;;;5058848;28;20047;-73
2023/04/05 05:05:04;;;;;;;13.07;8.48;;;1.30;93.30;;;;;;5042452;28;20037;-72
2023/04/05 05:07:29;;;;;;;14.38;8.57;;;1.30;93.40;;;;;;5058732;28;20039;-72
2023/04/05 05:09:55;;;;;;;14.73;8.38;;;1.30;93.70;;;;;;5058723;28;20048;-72
2023/04/05 05:12:22;;;;;;;14.40;8.48;;;1.30;93.80;;;;;;5058655;28;20120;-72
2023/04/05 05:14:47;;;;;;;15.93;8.10;;;1.30;93.90;;;;;;5058659;28;20044;-72
2023/04/05 05:17:13;;;;;;;12.38;8.43;;;1.30;93.90;;;;;;5041821;28;20040;-72
2023/04/05 05:19:39;;;;;;;14.73;8.30;;;1.30;93.90;;;;;;5058648;28;20041;-72
2023/04/05 05:22:04;;;;;;;15.20;8.25;;;1.30;94.00;;;;;;5058510;28;20040;-71
2023/04/05 05:24:30;;;;;;;14.77;8.57;;;1.30;94.00;;;;;;5058378;28;20050;-71
2023/04/05 05:26:56;;;;;;;14.23;8.30;;;1.30;94.30;;;;;;5058328;28;20131;-70
2023/04/05 05:29:21;;;;;;;12.82;7.72;;;1.30;94.20;;;;;;5058357;28;20128;-71
2023/04/05 05:31:47;;;;;;;14.38;8.13;;;1.30;94.10;;;;;;5058626;28;20052;-71
2023/04/05 05:34:12;;;;;;;13.98;7.80;;;1.30;94.00;;;;;;5058285;28;20408;-71
2023/04/05 05:36:38;;;;;;;14.35;8.20;;;1.30;94.00;;;;;;5058164;28;20128;-71
2023/04/05 05:39:06;;;;;;;14.27;8.07;;;1.30;94.20;;;;;;5058207;28;20102;-71
2023/04/05 05:41:32;;;;;;;15.23;8.50;;;1.30;94.30;;;;;;5058158;28;20067;-71
2023/04/05 05:43:58;;;;;;;14.27;7.95;;;1.30;94.40;;;;;;5058126;28;20162;-71
2023/04/05 05:46:25;;;;;;;15.38;8.07;;;1.40;94.60;;;;;;5057907;28;20127;-71
2023/04/05 05:48:50;;;;;;;14.90;8.00;;;1.30;94.60;;;;;;5058370;28;20044;-71
2023/04/05 05:51:16;;;;;;;11.45;7.57;;;1.40;94.70;;;;;;5057999;28;20178;-71
2023/04/05 05:53:43;;;;;;;13.40;8.13;;;1.40;94.70;;;;;;5058014;28;20044;-71
2023/04/05 05:56:09;;;;;;;14.85;8.40;;;1.50;94.80;;;;;;5057936;28;20119;-70
2023/04/05 05:58:35;;;;;;;15.23;8.70;;;1.50;94.90;;;;;;5057882;28;20579;-71
2023/04/05 06:01:02;;;;;;;15.35;8.80;;;1.50;94.80;;;;;;5057541;28;20125;-71
2023/04/05 06:03:29;;;;;;;12.90;7.97;;;1.50;94.90;;;;;;5057761;28;20033;-71
2023/04/05 06:05:56;;;;;;;12.80;8.07;;;1.60;95.10;;;;;;5057651;28;20040;-70
2023/04/05 06:08:23;;;;;;;17.27;8.98;;;1.60;95.00;;;;;;5057611;28;20527;-71
2023/04/05 06:10:49;;;;;;;14.57;8.63;;;1.70;95.10;;;;;;5040994;28;20033;-71
2023/04/05 06:13:16;;;;;;;15.48;10.10;;;1.70;95.10;;;;;;5057834;28;20083;-71
2023/04/05 06:15:42;;;;;;;15.85;9.15;;;1.80;95.20;;;;;;5040721;28;20485;-71
2023/04/05 06:18:08;;;;;;;13.68;9.40;;;1.80;95.70;;;;;;5057711;28;20033;-71
2023/04/05 06:20:39;;;;;;;14.93;9.05;;;1.90;95.90;;;;;;5057659;28;20036;-71
2023/04/05 06:23:05;;;;;;;18.05;8.95;;;1.90;96.10;;;;;;5057397;28;20497;-71
2023/04/05 06:25:31;;;;;;;14.40;8.65;;;2.00;96.30;;;;;;5057324;28;20454;-70
2023/04/05 06:27:56;;;;;;;15.30;9.65;;;2.10;96.40;;;;;;5057290;28;20079;-71
2023/04/05 06:30:22;;;;;;;20.23;9.98;;;2.20;96.50;;;;;;5057479;28;20044;-71
2023/04/05 06:32:53;;;;;;;17.38;9.60;;;2.20;96.70;;;;;;5057202;28;20040;-71
2023/04/05 06:35:22;;;;;;;13.73;9.45;;;2.30;96.70;;;;;;5057076;28;20076;-71
2023/04/05 06:37:47;;;;;;;17.42;9.23;;;2.40;96.60;;;;;;5057041;28;20072;-71
2023/04/05 06:40:13;;;;;;;16.38;9.48;;;2.40;96.80;;;;;;5057120;28;20032;-72
2023/04/05 06:42:39;;;;;;;18.48;9.70;;;2.50;96.80;;;;;;5057331;28;20044;-71
2023/04/05 06:45:05;;;;;;;11.82;8.23;;;2.60;96.70;;;;;;5057584;28;20243;-70
2023/04/05 06:47:35;;;;;;;16.58;8.82;;;2.70;96.70;;;;;;5056996;28;20040;-71
2023/04/05 06:50:02;;;;;;;12.82;8.75;;;2.80;97.00;;;;;;5056940;28;20047;-71
2023/04/05 06:52:28;;;;;;;14.20;8.32;;;2.80;96.70;;;;;;5040190;28;20500;-71
2023/04/05 06:54:54;;;;;;;13.82;8.70;;;2.90;96.60;;;;;;5056816;28;20047;-72
2023/04/05 06:57:19;;;;;;;14.43;9.05;;;2.90;96.50;;;;;;5056686;28;20033;-72
2023/04/05 06:59:45;;;;;;;12.75;8.25;;;3.00;96.60;;;;;;5057036;28;20079;-71
2023/04/05 07:02:11;;;;;;;15.80;8.30;;;3.10;96.60;;;;;;5056709;28;20515;-71
2023/04/05 07:04:37;;;;;;;13.35;8.80;;;3.20;96.50;;;;;;5056700;28;20043;-71
2023/04/05 07:07:03;;;;;;;16.77;9.80;;;3.20;96.50;;;;;;5056491;28;20037;-70
2023/04/05 07:09:32;;;;;;;18.55;9.15;;;3.30;96.40;;;;;;5056526;28;20041;-71
2023/04/05 07:11:59;;;;;;;13.40;9.30;;;3.40;96.50;;;;;;5055829;28;20047;-71
2023/04/05 07:14:24;;;;;;;14.18;8.68;;;3.50;96.50;;;;;;5056635;28;20230;-71
2023/04/05 07:16:51;;;;;;;15.10;7.90;;;3.50;96.30;;;;;;5039404;28;20469;-71
2023/04/05 07:19:17;;;;;;;13.18;8.63;;;3.60;96.20;;;;;;5056572;28;20036;-71
2023/04/05 07:21:43;;;;;;;13.82;8.95;;;3.70;96.10;;;;;;5056525;28;20040;-71
2023/04/05 07:24:09;;;;;;;14.63;9.20;;;3.80;96.20;;;;;;5056245;28;20450;-71
2023/04/05 07:26:36;;;;;;;12.38;8.10;;;3.90;96.10;;;;;;5056414;28;20040;-70
2023/04/05 07:29:03;;;;;;;12.90;7.65;;;4.00;95.80;;;;;;5056376;28;20056;-71
2023/04/05 07:31:29;;;;;;;15.73;8.13;;;4.20;95.60;;;;;;5056345;28;20129;-71
2023/04/05 07:33:54;;;;;;;11.65;6.68;;;4.30;95.40;;;;;;5056079;28;20444;-70
2023/04/05 07:36:20;;;;;;;14.88;7.18;;;4.40;95.00;;;;;;5055823;28;20049;-71
2023/04/05 07:38:46;;;;;;;12.68;7.28;;;4.50;94.80;;;;;;5056194;28;20123;-71
2023/04/05 07:41:11;;;;;;;11.93;7.10;;;4.60;94.40;;;;;;5056391;28;20074;-71
2023/04/05 07:43:37;;;;;;;10.95;7.18;;;4.70;94.20;;;;;;5055895;28;20481;-71
2023/04/05 07:46:03;;;;;;;11.93;6.93;;;4.80;94.10;;;;;;5055809;28;20040;-71
2023/04/05 07:48:29;;;;;;;9.15;6.43;;;4.90;94.00;;;;;;5055773;28;20082;-71
2023/04/05 07:50:55;;;;;;;12.35;6.38;;;5.10;93.50;;;;;;5055744;28;20037;-71
2023/04/05 07:53:21;;;;;;;11.85;6.78;;;5.20;93.20;;;;;;5055956;28;20037;-71
2023/04/05 07:55:46;;;;;;;8.15;5.75;;;5.30;93.00;;;;;;5055613;28;20515;-71
2023/04/05 07:58:13;;;;;;;9.80;6.05;;;5.50;92.70;;;;;;5055797;28;20053;-70
2023/04/05 08:00:38;;;;;;;10.07;6.03;;;5.60;92.40;;;;;;5055620;28;20041;-71
2023/04/05 08:03:04;;;;;;;9.05;5.63;;;5.80;92.00;;;;;;5055567;28;20033;-70
2023/04/05 08:05:30;;;;;;;12.55;5.90;;;5.90;91.40;;;;;;5055516;28;20044;-71
2023/04/05 08:07:56;;;;;;;10.13;6.35;;;6.00;90.80;;;;;;5055646;28;20032;-71
2023/04/05 08:10:23;;;;;;;11.10;5.95;;;6.10;90.80;;;;;;5055677;28;20052;-70
2023/04/05 08:12:48;;;;;;;10.88;6.22;;;6.30;90.40;;;;;;5055358;28;20123;-70
2023/04/05 08:15:14;;;;;;;9.15;5.93;;;6.50;90.10;;;;;;5055325;28;20166;-70
2023/04/05 08:17:40;;;;;;;12.77;6.90;;;6.60;88.70;;;;;;5038629;28;20036;-71
2023/04/05 08:20:06;;;;;;;11.43;6.68;;;6.80;88.80;;;;;;5055350;28;20479;-71
2023/04/05 08:22:32;;;;;;;9.93;6.50;;;6.90;89.00;;;;;;5055466;28;20048;-71
2023/04/05 08:24:58;;;;;;;10.60;6.28;;;7.10;89.10;;;;;;5055142;28;20382;-71
2023/04/05 08:27:23;;;;;;;11.02;6.18;;;7.20;88.60;;;;;;5055140;28;20036;-70
2023/04/05 08:29:49;;;;;;;10.35;4.78;;;7.30;86.00;;;;;;5038878;28;20063;-70
2023/04/05 08:32:14;;;;;;;8.35;5.10;;;7.50;83.90;;;;;;5055142;28;20412;-71
2023/04/05 08:34:40;;;;;;;7.47;4.78;;;7.70;82.50;;;;;;5055134;28;20036;-71
2023/04/05 08:37:06;;;;;;;9.57;5.05;;;8.00;80.80;;;;;;5038941;28;20094;-70
2023/04/05 08:39:34;;;;;;;8.98;5.38;;;8.20;80.20;;;;;;5055285;28;20064;-70
2023/04/05 08:42:10;;;;;;;9.98;5.85;;;8.40;79.10;;;;;;5055301;28;20071;-70
2023/04/05 08:44:36;;;;;;;8.48;4.90;;;8.60;79.10;;;;;;5055077;28;20041;-70
2023/04/05 08:47:02;;;;;;;7.03;4.93;;;8.80;76.70;;;;;;5054970;28;20055;-71
2023/04/05 08:49:27;;;;;;;9.52;5.47;;;9.00;74.90;;;;;;5055286;28;20047;-71
2023/04/05 08:51:54;;;;;;;12.32;5.50;;;9.20;74.30;;;;;;5055258;28;20412;-71
2023/04/05 08:54:20;;;;;;;10.60;4.95;;;9.40;74.00;;;;;;5054955;28;20492;-70
2023/04/05 08:56:48;;;;;;;8.43;5.40;;;9.60;73.30;;;;;;5054885;28;20111;-71
2023/04/05 08:59:17;;;;;;;5.88;4.32;;;9.80;72.60;;;;;;5055142;28;20049;-71
2023/04/05 09:01:44;;;;;;;7.90;4.60;;;10.10;71.70;;;;;;5054827;28;20040;-71
2023/04/05 09:04:20;;;;;;;8.20;4.03;;;10.00;69.90;;;;;;5054817;28;20412;-71
2023/04/05 09:06:48;;;;;;;9.82;4.55;;;10.20;68.80;;;;;;5055010;28;20040;-70
2023/04/05 09:09:15;;;;;;;7.22;3.35;;;10.30;69.30;;;;;;5054812;28;20055;-70
2023/04/05 09:11:42;;;;;;;7.03;3.58;;;10.50;68.00;;;;;;5055006;28;20523;-71
2023/04/05 09:14:10;;;;;;;9.00;4.20;;;10.80;66.90;;;;;;5038376;28;20067;-71
2023/04/05 09:16:38;;;;;;;8.10;4.10;;;10.90;65.90;;;;;;5054533;28;20390;-71
2023/04/05 09:19:04;;;;;;;10.23;4.05;;;11.10;65.50;;;;;;5054856;28;20033;-71
2023/04/05 09:21:50;;;;;;;5.65;3.58;;;11.30;64.30;;;;;;5054720;28;20032;-71
2023/04/05 09:24:29;;;;;;;7.13;3.92;;;11.60;63.60;;;;;;5054775;28;20110;-71
2023/04/05 09:27:05;;;;;;;5.47;3.33;;;11.90;59.50;;;;;;5054573;28;20045;-71
2023/04/05 09:29:31;;;;;;;10.80;3.33;;;12.10;59.50;;;;;;5038204;28;20044;-71
2023/04/05 09:31:57;;;;;;;6.72;3.50;;;12.10;59.20;;;;;;5038016;28;20544;-71
2023/04/05 09:34:23;;;;;;;9.02;4.10;;;12.30;59.60;;;;;;5054524;28;20041;-70
2023/04/05 09:36:49;;;;;;;7.32;3.60;;;12.50;59.10;;;;;;5057083;28;20043;-70
2023/04/05 09:39:20;;;;;;;6.95;3.90;;;12.60;58.60;;;;;;5058504;28;20072;-71
2023/04/05 09:42:07;;;;;;;4.38;3.25;;;12.80;57.10;;;;;;5058297;28;20381;-71
2023/04/05 09:45:03;;;;;;;6.53;3.50;;;13.00;55.90;;;;;;5058628;28;20036;-71
2023/04/05 09:47:31;;;;;;;6.10;3.58;;;13.10;55.30;;;;;;5058319;28;20119;-70
2023/04/05 09:49:58;;;;;;;5.40;3.10;;;13.20;56.00;;;;;;5041801;28;20111;-71
2023/04/05 09:52:25;;;;;;;6.05;4.25;;;13.40;55.90;;;;;;5058104;28;20450;-71
2023/04/05 09:54:56;;;;;;;7.88;3.65;;;13.60;55.30;;;;;;5057965;28;20041;-70
2023/04/05 09:57:26;;;;;;;4.70;3.30;;;13.70;54.20;;;;;;5057834;28;20123;-71
2023/04/05 09:59:52;;;;;;;6.22;3.78;;;13.80;52.90;;;;;;5058292;28;20111;-71
2023/04/05 10:02:20;;;;;;;5.82;3.13;;;14.00;53.00;;;;;;5057859;28;20051;-70
2023/04/05 10:04:47;;;;;;;6.22;3.03;;;13.90;52.50;;;;;;5075837;28;20036;-71
2023/04/05 10:07:14;;;;;;;7.57;3.78;;;14.00;53.20;;;;;;5057743;28;20040;-71
2023/04/05 10:09:41;;;;;;;6.85;3.85;;;14.20;51.20;;;;;;5057645;28;20040;-71
2023/04/05 10:12:08;;;;;;;5.72;3.50;;;14.30;52.00;;;;;;5057667;28;20045;-71
2023/04/05 10:14:38;;;;;;;7.60;3.30;;;14.30;52.10;;;;;;5057650;28;20048;-71
2023/04/05 10:17:24;;;;;;;6.40;3.38;;;14.50;51.20;;;;;;5040809;28;20104;-71
2023/04/05 10:19:56;;;;;;;7.55;3.45;;;14.70;50.60;;;;;;5057562;28;20045;-71
2023/04/05 10:22:32;;;;;;;7.32;3.17;;;14.90;49.60;;;;;;5057489;28;20047;-71
2023/04/05 10:25:05;;;;;;;5.82;3.65;;;15.00;49.90;;;;;;5057405;28;20037;-71
2023/04/05 10:27:47;;;;;;;;;;;14.90;49.60;;;;;;5041149;28;20509;-70
2023/04/05 10:30:15;;;;;;;8.23;4.40;;;14.50;48.30;;;;;;5057435;28;19977;-71
2023/04/05 10:32:41;;;;;;;7.18;4.45;;;14.40;50.20;;;;;;5057291;28;20390;-71
2023/04/05 10:35:27;;;;;;;5.70;3.60;;;14.20;50.20;;;;;;5057353;28;20080;-70
2023/04/05 10:38:11;;;;;;;5.88;3.50;;;14.40;50.40;;;;;;5057243;28;20131;-72
2023/04/05 10:40:40;;;;;;;5.65;3.88;;;14.70;48.70;;;;;;5057151;28;20063;-72
2023/04/05 10:43:13;;;;;;;7.63;3.70;;;14.70;49.30;;;;;;5040494;28;20072;-71
2023/04/05 10:45:40;;;;;;;7.57;4.10;;;14.80;49.20;;;;;;5057041;28;20044;-71
2023/04/05 10:48:35;;;;;;;4.25;3.25;;;15.00;49.50;;;;;;5055777;28;20040;-71
2023/04/05 10:51:02;;;;;;;5.47;3.42;;;14.80;47.90;;;;;;5057038;28;20484;-72
2023/04/05 10:53:30;;;;;;;6.72;3.50;;;14.90;48.50;;;;;;5057310;28;20052;-72
2023/04/05 10:55:57;;;;;;;7.40;3.70;;;14.60;48.70;;;;;;5056705;28;20548;-70
2023/04/05 10:58:24;;;;;;;8.38;4.03;;;14.20;49.10;;;;;;5057029;28;20566;-71
2023/04/05 11:00:51;;;;;;;7.47;3.67;;;14.00;49.60;;;;;;5056875;28;20037;-71
2023/04/05 11:03:48;;;;;;;5.60;3.92;;;14.20;48.60;;;;;;5040135;28;20512;-71
2023/04/05 11:06:21;;;;;;;6.78;4.05;;;14.10;47.50;;;;;;5056561;28;20080;-71
2023/04/05 11:08:47;;;;;;;;;;;14.30;48.10;;;;;;5057253;28;20451;-72
2023/04/05 11:11:16;;;;;;;7.90;3.70;;;14.50;49.30;;;;;;5056524;28;19920;-71
2023/04/05 11:13:50;;;;;;;7.63;3.38;;;14.90;47.90;;;;;;5056465;28;20047;-72
2023/04/05 11:16:15;;;;;;;6.47;4.10;;;15.10;47.00;;;;;;5056239;28;20127;-71
2023/04/05 11:18:51;;;;;;;5.13;3.50;;;15.30;47.10;;;;;;5056397;28;20075;-71
2023/04/05 11:21:24;;;;;;;15.70;4.15;;;15.50;46.30;;;;;;5056665;28;20036;-71
2023/04/05 11:24:11;;;;;;;7.47;3.70;;;15.30;46.00;;;;;;5056594;28;20036;-71
2023/04/05 11:26:39;;;;;;;7.70;4.07;;;15.30;46.60;;;;;;5056078;28;20052;-71
2023/04/05 11:29:09;;;;;;;6.07;3.47;;;14.80;46.30;;;;;;5056198;28;20047;-71
2023/04/05 11:31:35;;;;;;;4.57;3.20;;;14.90;47.40;;;;;;5056773;28;20036;-71
2023/04/05 11:34:11;;;;;;;5.25;3.70;;;15.00;47.80;;;;;;5056404;28;20047;-71
2023/04/05 11:36:47;;;;;;;5.05;3.72;;;15.10;47.80;;;;;;5056072;28;20044;-71
2023/04/05 11:39:21;;;;;;;5.82;3.80;;;15.40;46.80;;;;;;5082417;22;20041;-69
2023/04/05 11:42:00;;;;;;;5.60;3.45;;;15.70;47.40;;;;;;5072389;28;20048;-68
2023/04/05 11:44:26;;;;;;;5.53;3.70;;;15.30;46.90;;;;;;5055981;28;20037;-68
2023/04/05 11:46:56;;;;;;;10.73;4.28;;;15.10;47.00;;;;;;5055877;28;20408;-68
2023/04/05 11:49:23;;;;;;;6.47;3.58;;;15.10;47.30;;;;;;5072435;28;20044;-69
2023/04/05 11:51:51;;;;;;;5.55;3.60;;;15.10;47.00;;;;;;5055794;28;20090;-68
2023/04/05 11:54:33;;;;;;;8.63;4.35;;;14.90;46.30;;;;;;5055726;28;20526;-70
2023/04/05 11:56:58;;;;;;;6.47;3.70;;;15.00;47.30;;;;;;5072339;28;20050;-70
2023/04/05 11:59:31;;;;;;;6.43;3.75;;;14.60;47.80;;;;;;5038926;28;20044;-71
2023/04/05 12:02:08;;;;;;;7.20;3.60;;;14.30;47.50;;;;;;5055638;28;20500;-71
2023/04/05 12:04:37;;;;;;;14.57;4.40;;;14.20;48.10;;;;;;5072537;28;20079;-70
2023/04/05 12:07:18;;;;;;;6.25;3.33;;;14.50;49.50;;;;;;5055575;28;20051;-71
2023/04/05 12:10:01;;;;;;;7.25;3.55;;;15.10;47.00;;;;;;5055506;28;20042;-71
2023/04/05 12:12:31;;;;;;;6.95;3.40;;;15.60;46.90;;;;;;5073453;28;20048;-71
2023/04/05 12:15:01;;;;;;;6.05;3.53;;;16.00;46.10;;;;;;5055461;28;20036;-70
2023/04/05 12:17:45;;;;;;;25.60;6.43;;;16.30;46.10;;;;;;5055316;28;20526;-70
2023/04/05 12:20:12;;;;;;;7.93;3.60;;;16.40;43.90;;;;;;5055509;28;20040;-71
2023/04/05 12:22:40;;;;;;;5.28;3.17;;;16.60;44.40;;;;;;5055329;28;20491;-71
2023/04/05 12:25:07;;;;;;;8.32;3.97;;;16.60;44.10;;;;;;5055221;28;20040;-71
2023/04/05 12:27:33;;;;;;;8.63;3.67;;;16.50;44.60;;;;;;5055449;28;20074;-71
2023/04/05 12:30:07;;;;;;;5.63;3.42;;;16.50;43.90;;;;;;5071882;28;20040;-71
2023/04/05 12:32:40;;;;;;;5.82;3.50;;;16.60;44.30;;;;;;5055266;28;20518;-71
2023/04/05 12:35:10;;;;;;;7.75;3.90;;;16.80;44.30;;;;;;5072025;28;20048;-71
2023/04/05 12:37:39;;;;;;;6.20;3.50;;;17.10;44.00;;;;;;5038566;28;20040;-71
2023/04/05 12:40:05;;;;;;;4.35;3.25;;;17.20;43.50;;;;;;5038254;28;20032;-71
2023/04/05 12:42:34;;;;;;;6.82;3.22;;;17.10;42.90;;;;;;5055048;28;20503;-69
2023/04/05 12:45:04;;;;;;;6.55;3.20;;;16.90;43.30;;;;;;5055070;28;20102;-69
2023/04/05 12:47:34;;;;;;;6.15;3.20;;;16.80;43.70;;;;;;5071753;28;20044;-69
2023/04/05 12:50:14;;;;;;;5.30;3.38;;;16.70;42.90;;;;;;5071947;28;20048;-69
2023/04/05 12:53:00;;;;;;;6.38;3.30;;;16.40;42.20;;;;;;5055018;28;20044;-69
2023/04/05 12:55:28;;;;;;;5.90;3.45;;;16.10;42.60;;;;;;5054886;28;20048;-69
2023/04/05 12:57:59;;;;;;;4.55;2.90;;;15.90;43.60;;;;;;5055016;28;20040;-69